sensor_id;sensor_type;location;lat;lon;timestamp;P1;durP1;ratioP1;P2;durP2;ratioP2
4957;SDS011;2494;51.872;9.688;2023-04-30T00:02:20;7.53;;;6.70;;
4957;SDS011;2494;51.872;9.688;2023-04-30T00:05:07;7.63;;;6.93;;
4957;SDS011;2494;51.872;9.688;2023-04-30T00:07:52;8.23;;;7.40;;
4957;SDS011;2494;51.872;9.688;2023-04-30T00:10:38;7.10;;;6.40;;
4957;SDS011;2494;51.872;9.688;2023-04-30T00:13:23;6.43;;;5.87;;
4957;SDS011;2494;51.872;9.688;2023-04-30T00:16:08;6.70;;;6.10;;
4957;SDS011;2494;51.872;9.688;2023-04-30T00:18:53;7.43;;;6.83;;
4957;SDS011;2494;51.872;9.688;2023-04-30T00:21:39;7.10;;;6.47;;
4957;SDS011;2494;51.872;9.688;2023-04-30T00:24:25;6.13;;;5.63;;
4957;SDS011;2494;51.872;9.688;2023-04-30T00:27:10;6.67;;;6.03;;
4957;SDS011;2494;51.872;9.688;2023-04-30T00:29:54;7.07;;;5.53;;
4957;SDS011;2494;51.872;9.688;2023-04-30T00:32:39;7.33;;;6.30;;
4957;SDS011;2494;51.872;9.688;2023-04-30T00:35:25;6.93;;;6.03;;
4957;SDS011;2494;51.872;9.688;2023-04-30T00:38:11;7.53;;;6.30;;
4957;SDS011;2494;51.872;9.688;2023-04-30T00:40:56;8.03;;;7.23;;
4957;SDS011;2494;51.872;9.688;2023-04-30T00:43:42;7.63;;;6.70;;
4957;SDS011;2494;51.872;9.688;2023-04-30T00:46:29;9.70;;;8.40;;
4957;SDS011;2494;51.872;9.688;2023-04-30T00:49:15;9.07;;;8.20;;
4957;SDS011;2494;51.872;9.688;2023-04-30T00:52:00;9.53;;;8.63;;
4957;SDS011;2494;51.872;9.688;2023-04-30T00:54:47;7.93;;;7.17;;
4957;SDS011;2494;51.872;9.688;2023-04-30T00:57:33;9.47;;;7.00;;
4957;SDS011;2494;51.872;9.688;2023-04-30T01:00:20;7.23;;;6.57;;
4957;SDS011;2494;51.872;9.688;2023-04-30T01:03:05;6.40;;;5.90;;
4957;SDS011;2494;51.872;9.688;2023-04-30T01:05:51;10.80;;;7.07;;
4957;SDS011;2494;51.872;9.688;2023-04-30T01:08:36;7.30;;;6.23;;
4957;SDS011;2494;51.872;9.688;2023-04-30T01:11:25;8.20;;;7.00;;
4957;SDS011;2494;51.872;9.688;2023-04-30T01:14:15;9.23;;;8.07;;
4957;SDS011;2494;51.872;9.688;2023-04-30T01:17:02;7.10;;;6.33;;
4957;SDS011;2494;51.872;9.688;2023-04-30T01:19:49;10.60;;;8.90;;
4957;SDS011;2494;51.872;9.688;2023-04-30T01:22:35;9.53;;;8.03;;
4957;SDS011;2494;51.872;9.688;2023-04-30T01:28:29;13.60;;;8.77;;
4957;SDS011;2494;51.872;9.688;2023-04-30T01:31:17;9.33;;;7.70;;
4957;SDS011;2494;51.872;9.688;2023-04-30T01:34:02;8.20;;;7.33;;
4957;SDS011;2494;51.872;9.688;2023-04-30T01:36:52;7.90;;;7.17;;
4957;SDS011;2494;51.872;9.688;2023-04-30T01:39:46;11.00;;;7.93;;
4957;SDS011;2494;51.872;9.688;2023-04-30T01:42:34;8.97;;;8.13;;
4957;SDS011;2494;51.872;9.688;2023-04-30T01:45:30;9.07;;;8.17;;
4957;SDS011;2494;51.872;9.688;2023-04-30T01:48:18;12.80;;;9.27;;
4957;SDS011;2494;51.872;9.688;2023-04-30T01:51:06;10.27;;;7.43;;
4957;SDS011;2494;51.872;9.688;2023-04-30T01:53:52;8.60;;;7.80;;
4957;SDS011;2494;51.872;9.688;2023-04-30T01:56:42;10.00;;;7.53;;
4957;SDS011;2494;51.872;9.688;2023-04-30T01:59:28;10.10;;;7.60;;
4957;SDS011;2494;51.872;9.688;2023-04-30T02:02:15;14.13;;;7.60;;
4957;SDS011;2494;51.872;9.688;2023-04-30T02:05:00;9.40;;;7.10;;
4957;SDS011;2494;51.872;9.688;2023-04-30T02:07:46;8.20;;;7.40;;
4957;SDS011;2494;51.872;9.688;2023-04-30T02:10:31;7.13;;;6.43;;
4957;SDS011;2494;51.872;9.688;2023-04-30T02:13:17;9.10;;;6.57;;
4957;SDS011;2494;51.872;9.688;2023-04-30T02:16:02;9.50;;;5.70;;
4957;SDS011;2494;51.872;9.688;2023-04-30T02:18:49;5.90;;;5.40;;
4957;SDS011;2494;51.872;9.688;2023-04-30T02:21:34;8.00;;;4.90;;
4957;SDS011;2494;51.872;9.688;2023-04-30T02:24:19;8.63;;;4.30;;
4957;SDS011;2494;51.872;9.688;2023-04-30T02:27:05;8.13;;;6.03;;
4957;SDS011;2494;51.872;9.688;2023-04-30T02:29:50;10.60;;;8.40;;
4957;SDS011;2494;51.872;9.688;2023-04-30T02:32:35;19.37;;;11.43;;
4957;SDS011;2494;51.872;9.688;2023-04-30T02:35:22;17.70;;;11.50;;
4957;SDS011;2494;51.872;9.688;2023-04-30T02:38:07;14.70;;;8.50;;
4957;SDS011;2494;51.872;9.688;2023-04-30T02:40:52;13.40;;;8.23;;
4957;SDS011;2494;51.872;9.688;2023-04-30T02:43:37;5.47;;;4.40;;
4957;SDS011;2494;51.872;9.688;2023-04-30T02:46:22;11.83;;;4.73;;
4957;SDS011;2494;51.872;9.688;2023-04-30T02:49:08;4.83;;;3.53;;
4957;SDS011;2494;51.872;9.688;2023-04-30T02:51:54;4.20;;;3.90;;
4957;SDS011;2494;51.872;9.688;2023-04-30T02:54:40;6.67;;;4.47;;
4957;SDS011;2494;51.872;9.688;2023-04-30T02:57:25;5.23;;;3.60;;
4957;SDS011;2494;51.872;9.688;2023-04-30T03:00:11;3.30;;;3.00;;
4957;SDS011;2494;51.872;9.688;2023-04-30T03:02:56;4.03;;;3.73;;
4957;SDS011;2494;51.872;9.688;2023-04-30T03:05:41;9.40;;;3.40;;
4957;SDS011;2494;51.872;9.688;2023-04-30T03:08:28;6.80;;;3.83;;
4957;SDS011;2494;51.872;9.688;2023-04-30T03:11:13;3.93;;;3.47;;
4957;SDS011;2494;51.872;9.688;2023-04-30T03:13:58;7.60;;;3.37;;
4957;SDS011;2494;51.872;9.688;2023-04-30T03:16:43;3.53;;;3.13;;
4957;SDS011;2494;51.872;9.688;2023-04-30T03:19:28;5.00;;;3.13;;
4957;SDS011;2494;51.872;9.688;2023-04-30T03:22:14;5.93;;;3.70;;
4957;SDS011;2494;51.872;9.688;2023-04-30T03:25:04;5.23;;;4.73;;
4957;SDS011;2494;51.872;9.688;2023-04-30T03:27:49;5.23;;;4.40;;
4957;SDS011;2494;51.872;9.688;2023-04-30T03:30:34;5.17;;;4.77;;
4957;SDS011;2494;51.872;9.688;2023-04-30T03:33:19;5.27;;;4.83;;
4957;SDS011;2494;51.872;9.688;2023-04-30T03:36:05;6.27;;;4.63;;
4957;SDS011;2494;51.872;9.688;2023-04-30T03:38:50;5.30;;;4.90;;
4957;SDS011;2494;51.872;9.688;2023-04-30T03:41:37;5.77;;;4.47;;
4957;SDS011;2494;51.872;9.688;2023-04-30T03:44:22;7.20;;;4.00;;
4957;SDS011;2494;51.872;9.688;2023-04-30T03:47:08;6.73;;;4.37;;
4957;SDS011;2494;51.872;9.688;2023-04-30T03:49:53;5.17;;;4.63;;
4957;SDS011;2494;51.872;9.688;2023-04-30T03:52:38;5.73;;;4.67;;
4957;SDS011;2494;51.872;9.688;2023-04-30T03:55:23;5.47;;;4.33;;
4957;SDS011;2494;51.872;9.688;2023-04-30T03:58:10;5.10;;;4.60;;
4957;SDS011;2494;51.872;9.688;2023-04-30T04:00:56;8.20;;;5.13;;
4957;SDS011;2494;51.872;9.688;2023-04-30T04:03:41;4.10;;;3.77;;
4957;SDS011;2494;51.872;9.688;2023-04-30T04:06:26;4.37;;;3.87;;
4957;SDS011;2494;51.872;9.688;2023-04-30T04:09:12;4.83;;;4.10;;
4957;SDS011;2494;51.872;9.688;2023-04-30T04:11:57;4.83;;;4.40;;
4957;SDS011;2494;51.872;9.688;2023-04-30T04:14:45;6.80;;;3.90;;
4957;SDS011;2494;51.872;9.688;2023-04-30T04:17:30;4.73;;;4.23;;
4957;SDS011;2494;51.872;9.688;2023-04-30T04:20:15;4.70;;;4.27;;
4957;SDS011;2494;51.872;9.688;2023-04-30T04:23:00;7.00;;;4.10;;
4957;SDS011;2494;51.872;9.688;2023-04-30T04:25:46;8.57;;;2.90;;
4957;SDS011;2494;51.872;9.688;2023-04-30T04:28:32;5.97;;;3.20;;
4957;SDS011;2494;51.872;9.688;2023-04-30T04:31:18;5.83;;;3.57;;
4957;SDS011;2494;51.872;9.688;2023-04-30T04:34:05;4.20;;;3.30;;
4957;SDS011;2494;51.872;9.688;2023-04-30T04:36:51;9.13;;;3.53;;
4957;SDS011;2494;51.872;9.688;2023-04-30T04:39:37;5.77;;;4.20;;
4957;SDS011;2494;51.872;9.688;2023-04-30T04:42:22;3.50;;;3.20;;
4957;SDS011;2494;51.872;9.688;2023-04-30T04:45:07;9.17;;;5.77;;
4957;SDS011;2494;51.872;9.688;2023-04-30T04:47:55;12.73;;;8.20;;
4957;SDS011;2494;51.872;9.688;2023-04-30T04:50:40;6.83;;;6.13;;
4957;SDS011;2494;51.872;9.688;2023-04-30T04:53:25;4.90;;;3.77;;
4957;SDS011;2494;51.872;9.688;2023-04-30T04:56:10;12.07;;;6.93;;
4957;SDS011;2494;51.872;9.688;2023-04-30T04:58:55;5.30;;;4.80;;
4957;SDS011;2494;51.872;9.688;2023-04-30T05:01:40;7.40;;;4.27;;
4957;SDS011;2494;51.872;9.688;2023-04-30T05:04:27;5.73;;;3.20;;
4957;SDS011;2494;51.872;9.688;2023-04-30T05:07:13;4.80;;;3.47;;
4957;SDS011;2494;51.872;9.688;2023-04-30T05:09:58;3.93;;;2.90;;
4957;SDS011;2494;51.872;9.688;2023-04-30T05:12:42;4.50;;;2.10;;
4957;SDS011;2494;51.872;9.688;2023-04-30T05:15:28;3.30;;;2.33;;
4957;SDS011;2494;51.872;9.688;2023-04-30T05:18:13;3.07;;;2.03;;
4957;SDS011;2494;51.872;9.688;2023-04-30T05:21:00;2.30;;;1.57;;
4957;SDS011;2494;51.872;9.688;2023-04-30T05:23:47;1.63;;;1.50;;
4957;SDS011;2494;51.872;9.688;2023-04-30T05:26:32;6.50;;;1.40;;
4957;SDS011;2494;51.872;9.688;2023-04-30T05:29:16;1.60;;;1.40;;
4957;SDS011;2494;51.872;9.688;2023-04-30T05:32:02;3.00;;;1.60;;
4957;SDS011;2494;51.872;9.688;2023-04-30T05:34:47;3.37;;;1.50;;
4957;SDS011;2494;51.872;9.688;2023-04-30T05:37:34;2.27;;;1.40;;
4957;SDS011;2494;51.872;9.688;2023-04-30T05:40:19;4.27;;;1.63;;
4957;SDS011;2494;51.872;9.688;2023-04-30T05:43:04;4.30;;;1.40;;
4957;SDS011;2494;51.872;9.688;2023-04-30T05:45:49;2.10;;;1.60;;
4957;SDS011;2494;51.872;9.688;2023-04-30T05:48:34;2.50;;;2.30;;
4957;SDS011;2494;51.872;9.688;2023-04-30T05:51:19;4.00;;;1.60;;
4957;SDS011;2494;51.872;9.688;2023-04-30T05:54:06;3.27;;;1.70;;
4957;SDS011;2494;51.872;9.688;2023-04-30T05:56:51;2.60;;;1.60;;
4957;SDS011;2494;51.872;9.688;2023-04-30T05:59:36;9.20;;;2.20;;
4957;SDS011;2494;51.872;9.688;2023-04-30T06:02:21;7.60;;;1.97;;
4957;SDS011;2494;51.872;9.688;2023-04-30T06:05:06;4.70;;;1.83;;
4957;SDS011;2494;51.872;9.688;2023-04-30T06:07:52;6.30;;;2.10;;
4957;SDS011;2494;51.872;9.688;2023-04-30T06:10:38;7.40;;;1.97;;
4957;SDS011;2494;51.872;9.688;2023-04-30T06:13:23;4.17;;;2.13;;
4957;SDS011;2494;51.872;9.688;2023-04-30T06:16:09;4.47;;;2.10;;
4957;SDS011;2494;51.872;9.688;2023-04-30T06:18:54;3.57;;;1.80;;
4957;SDS011;2494;51.872;9.688;2023-04-30T06:21:39;5.17;;;1.90;;
4957;SDS011;2494;51.872;9.688;2023-04-30T06:24:26;3.67;;;2.03;;
4957;SDS011;2494;51.872;9.688;2023-04-30T06:27:14;2.60;;;1.83;;
4957;SDS011;2494;51.872;9.688;2023-04-30T06:29:59;4.27;;;1.93;;
4957;SDS011;2494;51.872;9.688;2023-04-30T06:32:45;6.70;;;1.80;;
4957;SDS011;2494;51.872;9.688;2023-04-30T06:35:30;2.77;;;1.60;;
4957;SDS011;2494;51.872;9.688;2023-04-30T06:38:15;3.90;;;1.70;;
4957;SDS011;2494;51.872;9.688;2023-04-30T06:41:01;6.00;;;2.10;;
4957;SDS011;2494;51.872;9.688;2023-04-30T06:43:48;4.43;;;1.77;;
4957;SDS011;2494;51.872;9.688;2023-04-30T06:46:33;3.17;;;2.07;;
4957;SDS011;2494;51.872;9.688;2023-04-30T06:49:18;7.50;;;2.03;;
4957;SDS011;2494;51.872;9.688;2023-04-30T06:52:03;4.73;;;2.30;;
4957;SDS011;2494;51.872;9.688;2023-04-30T06:54:49;4.70;;;1.83;;
4957;SDS011;2494;51.872;9.688;2023-04-30T06:57:34;5.83;;;2.03;;
4957;SDS011;2494;51.872;9.688;2023-04-30T07:00:21;5.43;;;2.10;;
4957;SDS011;2494;51.872;9.688;2023-04-30T07:03:06;3.57;;;1.80;;
4957;SDS011;2494;51.872;9.688;2023-04-30T07:05:51;4.90;;;2.60;;
4957;SDS011;2494;51.872;9.688;2023-04-30T07:08:36;3.77;;;2.10;;
4957;SDS011;2494;51.872;9.688;2023-04-30T07:11:23;5.13;;;2.60;;
4957;SDS011;2494;51.872;9.688;2023-04-30T07:14:09;3.97;;;1.90;;
4957;SDS011;2494;51.872;9.688;2023-04-30T07:16:55;3.83;;;1.90;;
4957;SDS011;2494;51.872;9.688;2023-04-30T07:19:41;6.73;;;2.17;;
4957;SDS011;2494;51.872;9.688;2023-04-30T07:22:26;5.80;;;2.00;;
4957;SDS011;2494;51.872;9.688;2023-04-30T07:25:11;3.87;;;2.37;;
4957;SDS011;2494;51.872;9.688;2023-04-30T07:27:57;5.30;;;2.37;;
4957;SDS011;2494;51.872;9.688;2023-04-30T07:30:42;3.90;;;1.87;;
4957;SDS011;2494;51.872;9.688;2023-04-30T07:33:29;7.20;;;2.40;;
4957;SDS011;2494;51.872;9.688;2023-04-30T07:36:14;6.43;;;2.27;;
4957;SDS011;2494;51.872;9.688;2023-04-30T07:38:59;7.23;;;2.50;;
4957;SDS011;2494;51.872;9.688;2023-04-30T07:41:44;8.83;;;2.20;;
4957;SDS011;2494;51.872;9.688;2023-04-30T07:44:30;6.10;;;2.10;;
4957;SDS011;2494;51.872;9.688;2023-04-30T07:47:15;5.27;;;2.63;;
4957;SDS011;2494;51.872;9.688;2023-04-30T07:50:02;5.33;;;2.20;;
4957;SDS011;2494;51.872;9.688;2023-04-30T07:52:47;3.83;;;1.90;;
4957;SDS011;2494;51.872;9.688;2023-04-30T07:55:32;5.10;;;2.40;;
4957;SDS011;2494;51.872;9.688;2023-04-30T07:58:18;2.67;;;1.80;;
4957;SDS011;2494;51.872;9.688;2023-04-30T08:01:03;4.53;;;2.00;;
4957;SDS011;2494;51.872;9.688;2023-04-30T08:03:49;5.50;;;2.67;;
4957;SDS011;2494;51.872;9.688;2023-04-30T08:06:35;5.13;;;2.00;;
4957;SDS011;2494;51.872;9.688;2023-04-30T08:09:20;2.90;;;1.90;;
4957;SDS011;2494;51.872;9.688;2023-04-30T08:12:05;4.80;;;2.40;;
4957;SDS011;2494;51.872;9.688;2023-04-30T08:14:57;4.63;;;1.97;;
4957;SDS011;2494;51.872;9.688;2023-04-30T08:17:43;6.20;;;1.80;;
4957;SDS011;2494;51.872;9.688;2023-04-30T08:20:28;4.10;;;2.00;;
4957;SDS011;2494;51.872;9.688;2023-04-30T08:23:16;2.90;;;1.90;;
4957;SDS011;2494;51.872;9.688;2023-04-30T08:26:00;7.33;;;2.00;;
4957;SDS011;2494;51.872;9.688;2023-04-30T08:28:46;5.73;;;2.03;;
4957;SDS011;2494;51.872;9.688;2023-04-30T08:31:31;3.23;;;1.80;;
4957;SDS011;2494;51.872;9.688;2023-04-30T08:34:15;4.70;;;2.10;;
4957;SDS011;2494;51.872;9.688;2023-04-30T08:37:01;3.87;;;1.90;;
4957;SDS011;2494;51.872;9.688;2023-04-30T08:39:48;5.23;;;2.73;;
4957;SDS011;2494;51.872;9.688;2023-04-30T08:42:34;4.37;;;1.80;;
4957;SDS011;2494;51.872;9.688;2023-04-30T08:45:20;4.80;;;1.80;;
4957;SDS011;2494;51.872;9.688;2023-04-30T08:48:06;8.00;;;2.87;;
4957;SDS011;2494;51.872;9.688;2023-04-30T08:50:54;3.73;;;2.10;;
4957;SDS011;2494;51.872;9.688;2023-04-30T08:53:39;5.10;;;2.00;;
4957;SDS011;2494;51.872;9.688;2023-04-30T08:56:27;6.57;;;2.17;;
4957;SDS011;2494;51.872;9.688;2023-04-30T08:59:14;6.87;;;4.20;;
4957;SDS011;2494;51.872;9.688;2023-04-30T09:01:59;3.60;;;2.83;;
4957;SDS011;2494;51.872;9.688;2023-04-30T09:04:44;8.13;;;2.90;;
4957;SDS011;2494;51.872;9.688;2023-04-30T09:07:30;3.93;;;2.33;;
4957;SDS011;2494;51.872;9.688;2023-04-30T09:10:18;5.63;;;2.10;;
4957;SDS011;2494;51.872;9.688;2023-04-30T09:13:06;4.10;;;2.10;;
4957;SDS011;2494;51.872;9.688;2023-04-30T09:15:51;2.87;;;1.80;;
4957;SDS011;2494;51.872;9.688;2023-04-30T09:18:37;7.50;;;2.67;;
4957;SDS011;2494;51.872;9.688;2023-04-30T09:21:32;4.20;;;2.10;;
4957;SDS011;2494;51.872;9.688;2023-04-30T09:24:17;4.50;;;2.63;;
4957;SDS011;2494;51.872;9.688;2023-04-30T09:27:05;5.40;;;2.63;;
4957;SDS011;2494;51.872;9.688;2023-04-30T09:30:00;5.17;;;2.50;;
4957;SDS011;2494;51.872;9.688;2023-04-30T09:32:53;6.27;;;2.23;;
4957;SDS011;2494;51.872;9.688;2023-04-30T09:35:38;2.87;;;2.13;;
4957;SDS011;2494;51.872;9.688;2023-04-30T09:38:24;2.70;;;2.03;;
4957;SDS011;2494;51.872;9.688;2023-04-30T09:41:20;5.43;;;2.20;;
4957;SDS011;2494;51.872;9.688;2023-04-30T09:44:05;3.37;;;1.87;;
4957;SDS011;2494;51.872;9.688;2023-04-30T09:46:52;5.20;;;2.47;;
4957;SDS011;2494;51.872;9.688;2023-04-30T09:49:37;7.83;;;2.60;;
4957;SDS011;2494;51.872;9.688;2023-04-30T09:52:22;4.83;;;1.63;;
4957;SDS011;2494;51.872;9.688;2023-04-30T09:55:07;2.97;;;2.30;;
4957;SDS011;2494;51.872;9.688;2023-04-30T09:57:52;10.17;;;2.43;;
4957;SDS011;2494;51.872;9.688;2023-04-30T10:00:38;5.10;;;2.30;;
4957;SDS011;2494;51.872;9.688;2023-04-30T10:03:24;4.63;;;2.00;;
4957;SDS011;2494;51.872;9.688;2023-04-30T10:06:11;3.80;;;2.47;;
4957;SDS011;2494;51.872;9.688;2023-04-30T10:08:58;4.90;;;3.13;;
4957;SDS011;2494;51.872;9.688;2023-04-30T10:11:45;5.93;;;2.50;;
4957;SDS011;2494;51.872;9.688;2023-04-30T10:14:30;4.00;;;2.10;;
4957;SDS011;2494;51.872;9.688;2023-04-30T10:17:17;4.90;;;2.60;;
4957;SDS011;2494;51.872;9.688;2023-04-30T10:20:04;4.43;;;2.33;;
4957;SDS011;2494;51.872;9.688;2023-04-30T10:22:51;4.73;;;2.50;;
4957;SDS011;2494;51.872;9.688;2023-04-30T10:25:37;4.53;;;1.93;;
4957;SDS011;2494;51.872;9.688;2023-04-30T10:28:23;2.07;;;1.97;;
4957;SDS011;2494;51.872;9.688;2023-04-30T10:31:08;10.00;;;2.27;;
4957;SDS011;2494;51.872;9.688;2023-04-30T10:33:57;4.77;;;2.10;;
4957;SDS011;2494;51.872;9.688;2023-04-30T10:36:46;3.47;;;1.93;;
4957;SDS011;2494;51.872;9.688;2023-04-30T10:39:32;4.80;;;1.80;;
4957;SDS011;2494;51.872;9.688;2023-04-30T10:42:18;2.77;;;2.10;;
4957;SDS011;2494;51.872;9.688;2023-04-30T10:45:03;9.37;;;2.73;;
4957;SDS011;2494;51.872;9.688;2023-04-30T10:47:48;4.60;;;2.10;;
4957;SDS011;2494;51.872;9.688;2023-04-30T10:50:38;3.20;;;1.90;;
4957;SDS011;2494;51.872;9.688;2023-04-30T10:53:26;2.90;;;2.07;;
4957;SDS011;2494;51.872;9.688;2023-04-30T10:56:13;6.73;;;2.23;;
4957;SDS011;2494;51.872;9.688;2023-04-30T10:59:13;6.50;;;2.20;;
4957;SDS011;2494;51.872;9.688;2023-04-30T11:01:59;4.00;;;2.03;;
4957;SDS011;2494;51.872;9.688;2023-04-30T11:07:49;4.37;;;1.90;;
4957;SDS011;2494;51.872;9.688;2023-04-30T11:10:36;2.47;;;2.17;;
4957;SDS011;2494;51.872;9.688;2023-04-30T11:13:21;6.10;;;2.40;;
4957;SDS011;2494;51.872;9.688;2023-04-30T11:16:06;2.07;;;1.50;;
4957;SDS011;2494;51.872;9.688;2023-04-30T11:18:51;6.03;;;2.43;;
4957;SDS011;2494;51.872;9.688;2023-04-30T11:21:38;2.80;;;1.80;;
4957;SDS011;2494;51.872;9.688;2023-04-30T11:24:35;2.10;;;1.90;;
4957;SDS011;2494;51.872;9.688;2023-04-30T11:27:35;5.03;;;1.93;;
4957;SDS011;2494;51.872;9.688;2023-04-30T11:30:21;2.30;;;1.83;;
4957;SDS011;2494;51.872;9.688;2023-04-30T11:33:06;8.40;;;4.20;;
4957;SDS011;2494;51.872;9.688;2023-04-30T11:35:53;5.10;;;2.90;;
4957;SDS011;2494;51.872;9.688;2023-04-30T11:38:38;4.73;;;2.53;;
4957;SDS011;2494;51.872;9.688;2023-04-30T11:41:24;2.63;;;1.57;;
4957;SDS011;2494;51.872;9.688;2023-04-30T11:44:22;1.93;;;1.70;;
4957;SDS011;2494;51.872;9.688;2023-04-30T11:47:08;3.67;;;2.23;;
4957;SDS011;2494;51.872;9.688;2023-04-30T11:49:53;7.00;;;2.33;;
4957;SDS011;2494;51.872;9.688;2023-04-30T11:52:40;2.53;;;1.60;;
4957;SDS011;2494;51.872;9.688;2023-04-30T11:55:26;2.07;;;1.53;;
4957;SDS011;2494;51.872;9.688;2023-04-30T11:58:13;2.83;;;1.60;;
4957;SDS011;2494;51.872;9.688;2023-04-30T12:01:00;3.40;;;1.70;;
4957;SDS011;2494;51.872;9.688;2023-04-30T12:03:46;3.50;;;1.80;;
4957;SDS011;2494;51.872;9.688;2023-04-30T12:06:31;2.47;;;1.50;;
4957;SDS011;2494;51.872;9.688;2023-04-30T12:09:16;5.90;;;2.30;;
4957;SDS011;2494;51.872;9.688;2023-04-30T12:12:01;1.87;;;1.50;;
4957;SDS011;2494;51.872;9.688;2023-04-30T12:14:47;3.77;;;1.90;;
4957;SDS011;2494;51.872;9.688;2023-04-30T12:17:33;4.60;;;1.90;;
4957;SDS011;2494;51.872;9.688;2023-04-30T12:20:19;7.57;;;4.17;;
4957;SDS011;2494;51.872;9.688;2023-04-30T12:23:04;13.73;;;12.43;;
4957;SDS011;2494;51.872;9.688;2023-04-30T12:25:49;3.77;;;3.27;;
4957;SDS011;2494;51.872;9.688;2023-04-30T12:28:35;2.50;;;1.60;;
4957;SDS011;2494;51.872;9.688;2023-04-30T12:31:20;9.27;;;5.00;;
4957;SDS011;2494;51.872;9.688;2023-04-30T12:34:07;4.10;;;2.20;;
4957;SDS011;2494;51.872;9.688;2023-04-30T12:36:52;2.40;;;1.70;;
4957;SDS011;2494;51.872;9.688;2023-04-30T12:39:41;6.60;;;1.63;;
4957;SDS011;2494;51.872;9.688;2023-04-30T12:42:30;5.20;;;1.80;;
4957;SDS011;2494;51.872;9.688;2023-04-30T12:48:16;9.27;;;5.60;;
4957;SDS011;2494;51.872;9.688;2023-04-30T12:51:03;4.50;;;3.10;;
4957;SDS011;2494;51.872;9.688;2023-04-30T12:53:49;6.80;;;4.70;;
4957;SDS011;2494;51.872;9.688;2023-04-30T12:56:35;6.70;;;3.10;;
4957;SDS011;2494;51.872;9.688;2023-04-30T12:59:20;5.87;;;5.37;;
4957;SDS011;2494;51.872;9.688;2023-04-30T13:02:06;7.07;;;3.40;;
4957;SDS011;2494;51.872;9.688;2023-04-30T13:04:51;2.83;;;2.10;;
4957;SDS011;2494;51.872;9.688;2023-04-30T13:07:39;1.83;;;1.67;;
4957;SDS011;2494;51.872;9.688;2023-04-30T13:10:24;3.20;;;1.80;;
4957;SDS011;2494;51.872;9.688;2023-04-30T13:13:10;5.30;;;2.20;;
4957;SDS011;2494;51.872;9.688;2023-04-30T13:15:55;3.00;;;1.97;;
4957;SDS011;2494;51.872;9.688;2023-04-30T13:18:41;2.60;;;1.50;;
4957;SDS011;2494;51.872;9.688;2023-04-30T13:21:26;6.00;;;1.90;;
4957;SDS011;2494;51.872;9.688;2023-04-30T13:24:12;1.87;;;1.50;;
4957;SDS011;2494;51.872;9.688;2023-04-30T13:26:57;3.10;;;1.77;;
4957;SDS011;2494;51.872;9.688;2023-04-30T13:29:43;7.60;;;1.90;;
4957;SDS011;2494;51.872;9.688;2023-04-30T13:32:28;4.20;;;2.97;;
4957;SDS011;2494;51.872;9.688;2023-04-30T13:35:13;4.30;;;2.03;;
4957;SDS011;2494;51.872;9.688;2023-04-30T13:37:59;2.60;;;1.73;;
4957;SDS011;2494;51.872;9.688;2023-04-30T13:40:46;3.70;;;1.50;;
4957;SDS011;2494;51.872;9.688;2023-04-30T13:43:31;2.47;;;1.40;;
4957;SDS011;2494;51.872;9.688;2023-04-30T13:46:17;4.87;;;1.70;;
4957;SDS011;2494;51.872;9.688;2023-04-30T13:49:02;2.60;;;1.50;;
4957;SDS011;2494;51.872;9.688;2023-04-30T13:51:48;6.03;;;2.00;;
4957;SDS011;2494;51.872;9.688;2023-04-30T13:54:33;7.23;;;1.60;;
4957;SDS011;2494;51.872;9.688;2023-04-30T13:57:20;6.00;;;1.97;;
4957;SDS011;2494;51.872;9.688;2023-04-30T14:00:06;2.93;;;1.50;;
4957;SDS011;2494;51.872;9.688;2023-04-30T14:02:51;4.20;;;1.70;;
4957;SDS011;2494;51.872;9.688;2023-04-30T14:05:37;1.73;;;1.63;;
4957;SDS011;2494;51.872;9.688;2023-04-30T14:08:22;1.60;;;1.30;;
4957;SDS011;2494;51.872;9.688;2023-04-30T14:11:07;3.33;;;2.17;;
4957;SDS011;2494;51.872;9.688;2023-04-30T14:13:53;3.13;;;1.67;;
4957;SDS011;2494;51.872;9.688;2023-04-30T14:16:38;5.00;;;1.77;;
4957;SDS011;2494;51.872;9.688;2023-04-30T14:19:23;1.87;;;1.67;;
4957;SDS011;2494;51.872;9.688;2023-04-30T14:22:09;2.80;;;2.07;;
4957;SDS011;2494;51.872;9.688;2023-04-30T14:24:54;4.60;;;2.23;;
4957;SDS011;2494;51.872;9.688;2023-04-30T14:27:39;3.33;;;1.60;;
4957;SDS011;2494;51.872;9.688;2023-04-30T14:30:26;7.70;;;3.10;;
4957;SDS011;2494;51.872;9.688;2023-04-30T14:33:12;6.70;;;1.97;;
4957;SDS011;2494;51.872;9.688;2023-04-30T14:35:57;3.47;;;1.87;;
4957;SDS011;2494;51.872;9.688;2023-04-30T14:38:44;2.50;;;1.77;;
4957;SDS011;2494;51.872;9.688;2023-04-30T14:41:32;2.63;;;1.50;;
4957;SDS011;2494;51.872;9.688;2023-04-30T14:44:17;4.53;;;1.97;;
4957;SDS011;2494;51.872;9.688;2023-04-30T14:47:04;2.80;;;2.03;;
4957;SDS011;2494;51.872;9.688;2023-04-30T14:49:48;3.77;;;1.80;;
4957;SDS011;2494;51.872;9.688;2023-04-30T14:52:35;3.27;;;1.60;;
4957;SDS011;2494;51.872;9.688;2023-04-30T14:55:20;2.97;;;1.60;;
4957;SDS011;2494;51.872;9.688;2023-04-30T14:58:06;2.03;;;1.77;;
4957;SDS011;2494;51.872;9.688;2023-04-30T15:00:51;2.30;;;1.60;;
4957;SDS011;2494;51.872;9.688;2023-04-30T15:03:37;2.60;;;1.60;;
4957;SDS011;2494;51.872;9.688;2023-04-30T15:06:22;3.10;;;1.87;;
4957;SDS011;2494;51.872;9.688;2023-04-30T15:09:08;2.63;;;1.60;;
4957;SDS011;2494;51.872;9.688;2023-04-30T15:11:55;3.60;;;1.80;;
4957;SDS011;2494;51.872;9.688;2023-04-30T15:14:40;2.33;;;1.20;;
4957;SDS011;2494;51.872;9.688;2023-04-30T15:17:25;6.30;;;1.80;;
4957;SDS011;2494;51.872;9.688;2023-04-30T15:20:11;1.93;;;1.23;;
4957;SDS011;2494;51.872;9.688;2023-04-30T15:22:57;2.57;;;2.10;;
4957;SDS011;2494;51.872;9.688;2023-04-30T15:25:41;2.20;;;1.90;;
4957;SDS011;2494;51.872;9.688;2023-04-30T15:28:27;2.23;;;1.23;;
4957;SDS011;2494;51.872;9.688;2023-04-30T15:31:12;3.97;;;1.67;;
4957;SDS011;2494;51.872;9.688;2023-04-30T15:33:57;2.80;;;1.80;;
4957;SDS011;2494;51.872;9.688;2023-04-30T15:36:43;3.57;;;1.70;;
4957;SDS011;2494;51.872;9.688;2023-04-30T15:39:28;1.50;;;1.30;;
4957;SDS011;2494;51.872;9.688;2023-04-30T15:42:14;2.63;;;1.40;;
4957;SDS011;2494;51.872;9.688;2023-04-30T15:44:59;3.00;;;1.30;;
4957;SDS011;2494;51.872;9.688;2023-04-30T15:47:44;3.27;;;1.50;;
4957;SDS011;2494;51.872;9.688;2023-04-30T15:50:29;3.00;;;1.80;;
4957;SDS011;2494;51.872;9.688;2023-04-30T15:53:16;3.00;;;1.67;;
4957;SDS011;2494;51.872;9.688;2023-04-30T15:56:01;1.77;;;1.63;;
4957;SDS011;2494;51.872;9.688;2023-04-30T15:58:47;2.27;;;1.43;;
4957;SDS011;2494;51.872;9.688;2023-04-30T16:01:33;4.13;;;1.70;;
4957;SDS011;2494;51.872;9.688;2023-04-30T16:04:18;32.13;;;25.27;;
4957;SDS011;2494;51.872;9.688;2023-04-30T16:07:03;3.90;;;2.00;;
4957;SDS011;2494;51.872;9.688;2023-04-30T16:09:49;10.43;;;6.60;;
4957;SDS011;2494;51.872;9.688;2023-04-30T16:12:35;2.80;;;1.90;;
4957;SDS011;2494;51.872;9.688;2023-04-30T16:15:20;1.73;;;1.47;;
4957;SDS011;2494;51.872;9.688;2023-04-30T16:18:06;1.90;;;1.40;;
4957;SDS011;2494;51.872;9.688;2023-04-30T16:20:53;1.90;;;1.67;;
4957;SDS011;2494;51.872;9.688;2023-04-30T16:23:38;2.53;;;2.07;;
4957;SDS011;2494;51.872;9.688;2023-04-30T16:26:25;3.67;;;2.10;;
4957;SDS011;2494;51.872;9.688;2023-04-30T16:29:10;2.53;;;1.70;;
4957;SDS011;2494;51.872;9.688;2023-04-30T16:31:56;2.93;;;2.33;;
4957;SDS011;2494;51.872;9.688;2023-04-30T16:34:41;2.90;;;1.80;;
4957;SDS011;2494;51.872;9.688;2023-04-30T16:37:26;2.83;;;2.40;;
4957;SDS011;2494;51.872;9.688;2023-04-30T16:40:11;3.70;;;1.67;;
4957;SDS011;2494;51.872;9.688;2023-04-30T16:42:57;2.27;;;1.37;;
4957;SDS011;2494;51.872;9.688;2023-04-30T16:45:43;3.60;;;1.80;;
4957;SDS011;2494;51.872;9.688;2023-04-30T16:48:28;4.43;;;1.67;;
4957;SDS011;2494;51.872;9.688;2023-04-30T16:51:13;4.10;;;2.00;;
4957;SDS011;2494;51.872;9.688;2023-04-30T16:53:58;6.40;;;2.53;;
4957;SDS011;2494;51.872;9.688;2023-04-30T16:56:43;2.43;;;1.70;;
4957;SDS011;2494;51.872;9.688;2023-04-30T16:59:30;5.10;;;2.43;;
4957;SDS011;2494;51.872;9.688;2023-04-30T17:02:15;3.67;;;1.60;;
4957;SDS011;2494;51.872;9.688;2023-04-30T17:05:00;1.57;;;1.47;;
4957;SDS011;2494;51.872;9.688;2023-04-30T17:07:45;2.33;;;1.97;;
4957;SDS011;2494;51.872;9.688;2023-04-30T17:10:32;3.33;;;1.57;;
4957;SDS011;2494;51.872;9.688;2023-04-30T17:13:16;3.57;;;1.87;;
4957;SDS011;2494;51.872;9.688;2023-04-30T17:16:03;2.27;;;1.40;;
4957;SDS011;2494;51.872;9.688;2023-04-30T17:18:48;2.50;;;1.57;;
4957;SDS011;2494;51.872;9.688;2023-04-30T17:21:33;2.00;;;1.50;;